Terminal Aerodrome Forecast
Issued by NWS Goodland, KS

Home | Current Version | Previous Version | Text Only | Print | Product List | Glossary On
Versions: 1 2 3 4 5 6 7 8 9 10 11 12 13 14 15 16 17 18 19
000
FTUS43 KGLD 251120
TAFGLD
TAF
KGLD 251120Z 2512/2612 23004KT P6SM OVC200
     FM251800 33010KT P6SM SCT200
     FM260000 36010KT 5SM BR SCT005 BKN015
     FM260300 01013KT 3SM BR BKN005
     FM260700 01013G19KT 2SM -SN BR OVC005=

USA.gov is the U.S. government's official web portal to all federal, state and local government web resources and services.